createdAt,value
2023-05-22T00:00:13.796Z,31.58
2023-05-22T00:02:44.644Z,26.75
2023-05-22T00:05:15.945Z,32.40
2023-05-22T00:07:43.942Z,27.70
2023-05-22T00:10:11.721Z,31.45
2023-05-22T00:12:39.868Z,26.23
2023-05-22T00:15:08.176Z,25.85
2023-05-22T00:20:07.332Z,34.08
2023-05-22T00:22:38.459Z,25.50
2023-05-22T00:25:07.680Z,21.60
2023-05-22T00:27:35.226Z,22.98
2023-05-22T00:30:03.745Z,22.55
2023-05-22T00:32:34.004Z,18.75
2023-05-22T00:35:01.719Z,21.45
2023-05-22T00:37:32.389Z,21.63
2023-05-22T00:40:00.299Z,21.35
2023-05-22T00:42:28.444Z,16.95
2023-05-22T00:44:55.994Z,17.88
2023-05-22T00:47:24.107Z,19.27
2023-05-22T00:49:51.656Z,14.55
2023-05-22T00:52:20.024Z,15.85
2023-05-22T00:54:48.918Z,20.10
2023-05-22T00:57:17.205Z,17.55
2023-05-22T01:02:13.721Z,12.93
2023-05-22T01:04:43.117Z,15.30
2023-05-22T01:07:10.933Z,13.30
2023-05-22T01:09:38.512Z,23.05
2023-05-22T01:12:34.686Z,14.40
2023-05-22T01:15:36.320Z,16.63
2023-05-22T01:18:42.040Z,17.35
2023-05-22T01:21:30.444Z,16.35
2023-05-22T01:24:42.151Z,15.73
2023-05-22T01:27:56.204Z,14.48
2023-05-22T01:31:06.805Z,17.67
2023-05-22T01:33:48.658Z,18.95
2023-05-22T01:36:20.525Z,22.35
2023-05-22T01:38:48.281Z,23.13
2023-05-22T01:41:17.395Z,19.98
2023-05-22T01:43:46.787Z,20.02
2023-05-22T01:46:14.562Z,21.35
2023-05-22T01:48:42.415Z,17.05
2023-05-22T01:51:20.600Z,15.57
2023-05-22T01:54:32.030Z,19.10
2023-05-22T01:57:27.132Z,16.65
2023-05-22T02:00:10.016Z,14.38
2023-05-22T02:02:53.862Z,14.20
2023-05-22T02:05:24.693Z,15.23
2023-05-22T02:07:56.124Z,14.98
2023-05-22T02:10:26.205Z,21.42
2023-05-22T02:12:54.333Z,23.25
2023-05-22T02:15:22.147Z,19.38
2023-05-22T02:17:50.188Z,18.70
2023-05-22T02:20:18.962Z,28.80
2023-05-22T02:22:48.220Z,29.50
2023-05-22T02:25:17.530Z,46.47
2023-05-22T02:27:48.301Z,37.10
2023-05-22T02:30:16.306Z,38.85
2023-05-22T02:32:46.297Z,35.05
2023-05-22T02:35:13.924Z,32.22
2023-05-22T02:37:42.447Z,39.67
2023-05-22T02:40:10.984Z,29.33
2023-05-22T02:45:07.084Z,39.47
2023-05-22T02:47:36.422Z,36.00
2023-05-22T02:50:04.268Z,36.67
2023-05-22T02:52:35.416Z,37.17
2023-05-22T02:55:04.770Z,33.45
2023-05-22T02:57:34.248Z,39.00
2023-05-22T03:00:01.794Z,33.13
2023-05-22T03:02:34.811Z,37.95
2023-05-22T03:05:02.611Z,35.47
2023-05-22T03:07:32.059Z,29.85
2023-05-22T03:09:59.596Z,27.10
2023-05-22T03:12:27.362Z,30.95
2023-05-22T03:14:54.898Z,28.83
2023-05-22T03:17:22.527Z,26.70
2023-05-22T03:19:50.268Z,28.65
2023-05-22T03:22:21.864Z,35.63
2023-05-22T03:24:49.627Z,28.90
2023-05-22T03:27:17.777Z,27.48
2023-05-22T03:29:47.888Z,27.30
2023-05-22T03:32:17.403Z,26.23
2023-05-22T03:34:45.112Z,21.10
2023-05-22T03:37:12.666Z,27.38
2023-05-22T03:39:40.191Z,21.52
2023-05-22T03:42:18.568Z,17.77
2023-05-22T03:44:46.383Z,23.73
2023-05-22T03:47:13.997Z,24.77
2023-05-22T03:49:41.579Z,19.00
2023-05-22T03:52:11.157Z,21.95
2023-05-22T03:54:38.825Z,23.55
2023-05-22T03:57:06.582Z,22.05
2023-05-22T03:59:34.018Z,18.05
2023-05-22T04:02:01.682Z,17.80
2023-05-22T04:04:29.491Z,20.25
2023-05-22T04:06:58.401Z,16.85
2023-05-22T04:09:27.931Z,17.48
2023-05-22T04:11:59.059Z,19.13
2023-05-22T04:14:26.640Z,20.55
2023-05-22T04:16:54.619Z,18.02
2023-05-22T04:19:22.494Z,16.23
2023-05-22T04:21:50.203Z,21.63
2023-05-22T04:24:18.605Z,23.73
2023-05-22T04:26:46.157Z,18.15
2023-05-22T04:29:14.807Z,18.77
2023-05-22T04:31:43.665Z,18.95
2023-05-22T04:34:15.804Z,20.60
2023-05-22T04:36:45.500Z,16.85
2023-05-22T04:39:16.232Z,25.23
2023-05-22T04:41:46.618Z,23.98
2023-05-22T04:44:14.572Z,19.50
2023-05-22T04:46:42.593Z,18.73
2023-05-22T04:51:38.142Z,19.65
2023-05-22T04:56:36.880Z,17.35
2023-05-22T04:59:09.576Z,15.38
2023-05-22T05:01:39.308Z,15.38
2023-05-22T05:04:07.129Z,16.67
2023-05-22T05:06:34.992Z,15.15
2023-05-22T05:09:07.664Z,19.13
2023-05-22T05:11:36.714Z,11.75
2023-05-22T05:14:04.497Z,13.60
2023-05-22T05:16:32.090Z,12.00
2023-05-22T05:18:59.644Z,10.82
2023-05-22T05:21:28.231Z,11.35
2023-05-22T05:23:59.020Z,9.82
2023-05-22T05:28:56.943Z,8.88
2023-05-22T05:31:29.001Z,7.13
2023-05-22T05:34:10.246Z,7.50
2023-05-22T05:37:13.150Z,8.45
2023-05-22T05:39:41.368Z,6.60
2023-05-22T05:42:10.506Z,11.15
2023-05-22T05:44:38.437Z,10.05
2023-05-22T05:47:07.733Z,5.15
2023-05-22T05:49:35.979Z,7.88
2023-05-22T05:52:05.400Z,7.25
2023-05-22T05:54:35.912Z,7.75
2023-05-22T05:57:10.788Z,5.72
2023-05-22T05:59:38.451Z,7.72
2023-05-22T06:02:24.723Z,6.43
2023-05-22T06:04:56.213Z,5.70
2023-05-22T06:07:24.534Z,9.75
2023-05-22T06:09:54.178Z,6.13
2023-05-22T06:12:42.029Z,4.78
2023-05-22T06:15:13.693Z,5.13
2023-05-22T06:17:42.061Z,8.52
2023-05-22T06:20:10.027Z,5.95
2023-05-22T06:22:37.973Z,5.20
2023-05-22T06:25:06.435Z,5.05
2023-05-22T06:27:34.934Z,4.65
2023-05-22T06:30:04.561Z,5.45
2023-05-22T06:32:38.359Z,10.07
2023-05-22T06:35:08.027Z,7.38
2023-05-22T06:37:36.021Z,5.70
2023-05-22T06:40:04.485Z,5.60
2023-05-22T06:42:39.674Z,6.35
2023-05-22T06:45:26.049Z,6.78
2023-05-22T06:48:12.530Z,4.10
2023-05-22T06:50:53.338Z,6.15
2023-05-22T06:53:21.199Z,4.97
2023-05-22T06:55:48.691Z,8.00
2023-05-22T06:58:24.019Z,5.28
2023-05-22T07:03:24.205Z,5.55
2023-05-22T07:06:10.445Z,7.32
2023-05-22T07:08:38.925Z,7.47
2023-05-22T07:11:07.745Z,5.80
2023-05-22T07:13:36.617Z,7.05
2023-05-22T07:16:04.539Z,4.75
2023-05-22T07:20:59.590Z,5.05
2023-05-22T07:23:27.073Z,4.00
2023-05-22T07:25:55.573Z,4.80
2023-05-22T07:28:26.819Z,4.68
2023-05-22T07:31:02.048Z,8.40
2023-05-22T07:33:30.895Z,7.72
2023-05-22T07:35:58.382Z,9.25
2023-05-22T07:41:01.094Z,11.70
2023-05-22T07:43:30.586Z,14.18
2023-05-22T07:45:59.976Z,11.15
2023-05-22T07:48:32.379Z,9.30
2023-05-22T07:50:59.931Z,8.05
2023-05-22T07:53:27.863Z,7.45
2023-05-22T07:55:58.180Z,15.60
2023-05-22T07:58:27.057Z,9.25
2023-05-22T08:00:56.069Z,11.27
2023-05-22T08:03:24.433Z,7.75
2023-05-22T08:05:52.025Z,11.50
2023-05-22T08:08:19.495Z,8.50
2023-05-22T08:11:02.901Z,7.38
2023-05-22T08:13:31.527Z,10.95
2023-05-22T08:16:00.504Z,13.57
2023-05-22T08:18:30.055Z,10.52
2023-05-22T08:20:58.113Z,9.48
2023-05-22T08:23:26.709Z,8.25
2023-05-22T08:25:54.122Z,8.65
2023-05-22T08:28:21.637Z,6.50
2023-05-22T08:30:49.086Z,8.80
2023-05-22T08:33:16.811Z,8.73
2023-05-22T08:35:44.472Z,6.50
2023-05-22T08:38:14.408Z,7.18
2023-05-22T08:40:46.224Z,9.07
2023-05-22T08:43:13.987Z,5.47
2023-05-22T08:45:42.743Z,8.95
2023-05-22T08:48:14.714Z,9.10
2023-05-22T08:50:46.340Z,7.95
2023-05-22T08:53:15.826Z,6.25
2023-05-22T08:55:43.692Z,6.47
2023-05-22T08:58:12.254Z,10.18
2023-05-22T09:00:40.211Z,7.05
2023-05-22T09:03:10.384Z,7.75
2023-05-22T09:05:39.338Z,8.82
2023-05-22T09:08:19.662Z,8.90
2023-05-22T09:10:48.312Z,4.85
2023-05-22T09:13:42.318Z,9.52
2023-05-22T09:16:12.898Z,8.15
2023-05-22T09:18:42.280Z,7.70
2023-05-22T09:21:28.691Z,8.88
2023-05-22T09:24:01.855Z,8.07
2023-05-22T09:26:30.588Z,9.80
2023-05-22T09:29:00.353Z,9.15
2023-05-22T09:31:32.294Z,6.47
2023-05-22T09:34:00.007Z,9.20
2023-05-22T09:36:33.385Z,10.75
2023-05-22T09:39:02.162Z,9.38
2023-05-22T09:41:32.616Z,5.60
2023-05-22T09:44:01.731Z,7.20
2023-05-22T09:46:30.072Z,3.88
2023-05-22T09:48:57.546Z,8.43
2023-05-22T09:51:26.816Z,7.25
2023-05-22T09:54:06.904Z,5.05
2023-05-22T09:56:39.794Z,10.70
2023-05-22T09:59:10.094Z,5.30
2023-05-22T10:01:40.038Z,7.45
2023-05-22T10:04:16.305Z,8.18
2023-05-22T10:06:50.542Z,7.97
2023-05-22T10:09:23.718Z,4.53
2023-05-22T10:11:55.257Z,11.05
2023-05-22T10:14:23.978Z,9.20
2023-05-22T10:16:52.724Z,4.55
2023-05-22T10:19:20.302Z,7.70
2023-05-22T10:21:49.806Z,7.50
2023-05-22T10:24:17.390Z,5.20
2023-05-22T10:26:45.164Z,6.25
2023-05-22T10:29:22.536Z,8.32
2023-05-22T10:32:23.834Z,13.23
2023-05-22T10:35:25.484Z,8.20
2023-05-22T10:38:03.108Z,8.95
2023-05-22T10:40:33.660Z,8.02
2023-05-22T10:43:04.227Z,19.88
2023-05-22T10:45:32.171Z,9.13
2023-05-22T10:48:07.739Z,10.77
2023-05-22T10:50:39.596Z,9.23
2023-05-22T10:53:28.112Z,9.73
2023-05-22T10:56:03.409Z,10.18
2023-05-22T10:58:36.630Z,7.15
2023-05-22T11:01:21.388Z,6.95
2023-05-22T11:04:08.822Z,14.70
2023-05-22T11:06:46.381Z,9.55
2023-05-22T11:09:17.920Z,5.78
2023-05-22T11:11:47.083Z,13.52
2023-05-22T11:14:20.664Z,8.35
2023-05-22T11:16:48.359Z,10.77
2023-05-22T11:19:23.235Z,11.15
2023-05-22T11:21:51.655Z,8.05
2023-05-22T11:27:07.993Z,13.82
2023-05-22T11:29:35.972Z,8.68
2023-05-22T11:32:03.899Z,19.67
2023-05-22T11:37:02.182Z,17.88
2023-05-22T11:39:32.565Z,8.20
2023-05-22T11:41:59.943Z,5.38
2023-05-22T11:44:28.096Z,5.80
2023-05-22T11:46:55.896Z,11.38
2023-05-22T11:49:26.751Z,8.85
2023-05-22T11:51:57.911Z,9.55
2023-05-22T11:54:25.329Z,10.30
2023-05-22T11:56:53.342Z,12.80
2023-05-22T11:59:22.382Z,10.68
2023-05-22T12:01:53.218Z,6.85
2023-05-22T12:04:20.887Z,5.07
2023-05-22T12:06:51.205Z,4.72
2023-05-22T12:09:18.749Z,11.20
2023-05-22T12:11:49.989Z,4.50
2023-05-22T12:14:17.469Z,7.95
2023-05-22T12:16:45.101Z,7.28
2023-05-22T12:19:13.422Z,12.13
2023-05-22T12:21:42.329Z,11.05
2023-05-22T12:24:11.043Z,5.35
2023-05-22T12:26:38.552Z,8.52
2023-05-22T12:29:06.151Z,5.53
2023-05-22T12:31:38.891Z,9.07
2023-05-22T12:34:10.072Z,3.03
2023-05-22T12:36:43.946Z,6.25
2023-05-22T12:39:21.400Z,6.65
2023-05-22T12:41:48.835Z,7.55
2023-05-22T12:44:16.996Z,5.78
2023-05-22T12:46:44.626Z,6.72
2023-05-22T12:51:39.423Z,6.72
2023-05-22T12:54:06.901Z,8.63
2023-05-22T12:56:34.412Z,9.45
2023-05-22T12:59:02.095Z,7.65
2023-05-22T13:01:29.661Z,6.05
2023-05-22T13:03:57.131Z,8.63
2023-05-22T13:06:24.902Z,8.95
2023-05-22T13:11:22.150Z,7.15
2023-05-22T13:13:49.620Z,10.60
2023-05-22T13:16:17.226Z,8.20
2023-05-22T13:18:44.731Z,7.65
2023-05-22T13:21:13.715Z,7.03
2023-05-22T13:23:41.221Z,9.23
2023-05-22T13:26:08.736Z,7.18
2023-05-22T13:28:36.124Z,8.95
2023-05-22T13:31:03.784Z,9.40
2023-05-22T13:33:31.741Z,6.05
2023-05-22T13:35:59.174Z,7.63
2023-05-22T13:38:26.678Z,7.90
2023-05-22T13:40:54.137Z,11.32
2023-05-22T13:43:21.600Z,9.00
2023-05-22T13:45:49.029Z,13.98
2023-05-22T13:48:17.727Z,4.03
2023-05-22T13:50:45.132Z,6.07
2023-05-22T13:53:12.695Z,10.27
2023-05-22T13:55:40.358Z,6.35
2023-05-22T13:58:07.979Z,5.47
2023-05-22T14:00:35.503Z,11.23
2023-05-22T14:03:03.086Z,10.48
2023-05-22T14:05:32.162Z,6.57
2023-05-22T14:07:59.558Z,10.52
2023-05-22T14:10:27.086Z,6.45
2023-05-22T14:12:55.034Z,7.53
2023-05-22T14:15:23.801Z,10.57
2023-05-22T14:17:51.700Z,11.77
2023-05-22T14:20:19.392Z,11.60
2023-05-22T14:22:57.068Z,7.18
2023-05-22T14:25:28.460Z,10.73
2023-05-22T14:27:55.985Z,11.65
2023-05-22T14:30:23.413Z,10.30
2023-05-22T14:32:51.027Z,7.07
2023-05-22T14:37:46.987Z,6.65
2023-05-22T14:40:14.400Z,9.75
2023-05-22T14:42:41.865Z,18.40
2023-05-22T14:45:09.695Z,5.18
2023-05-22T14:47:37.326Z,8.13
2023-05-22T14:50:18.350Z,5.22
2023-05-22T14:52:49.035Z,6.30
2023-05-22T14:55:17.703Z,4.18
2023-05-22T14:57:47.764Z,8.75
2023-05-22T15:00:16.273Z,5.78
2023-05-22T15:02:43.759Z,5.28
2023-05-22T15:05:11.821Z,11.43
2023-05-22T15:07:44.552Z,7.30
2023-05-22T15:10:13.914Z,3.80
2023-05-22T15:12:41.457Z,6.20
2023-05-22T15:15:10.960Z,8.75
2023-05-22T15:17:40.107Z,6.13
2023-05-22T15:20:13.235Z,9.45
2023-05-22T15:22:40.718Z,5.90
2023-05-22T15:25:12.093Z,8.07
2023-05-22T15:27:40.263Z,6.25
2023-05-22T15:35:07.050Z,9.38
2023-05-22T15:37:36.556Z,14.05
2023-05-22T15:40:06.199Z,11.18
2023-05-22T15:42:35.205Z,11.65
2023-05-22T15:45:03.226Z,12.38
2023-05-22T15:47:34.497Z,7.47
2023-05-22T15:50:02.016Z,5.90
2023-05-22T15:52:32.023Z,11.45
2023-05-22T15:54:59.524Z,13.70
2023-05-22T15:57:31.044Z,12.93
2023-05-22T15:59:58.482Z,10.55
2023-05-22T16:02:26.810Z,9.68
2023-05-22T16:04:54.427Z,10.77
2023-05-22T16:07:21.945Z,20.35
2023-05-22T16:09:50.419Z,15.63
2023-05-22T16:12:20.368Z,13.73
2023-05-22T16:14:47.804Z,15.68
2023-05-22T16:17:15.390Z,13.50
2023-05-22T16:19:43.409Z,20.75
2023-05-22T16:24:38.112Z,30.60
2023-05-22T16:27:05.970Z,38.53
2023-05-22T16:29:33.694Z,27.70
2023-05-22T16:32:01.472Z,29.15
2023-05-22T16:34:30.118Z,35.33
2023-05-22T16:36:57.546Z,24.88
2023-05-22T16:39:27.665Z,18.67
2023-05-22T16:41:57.343Z,21.98
2023-05-22T16:44:24.763Z,16.23
2023-05-22T16:46:52.392Z,18.45
2023-05-22T16:49:19.877Z,34.08
2023-05-22T16:51:47.388Z,39.58
2023-05-22T16:54:14.901Z,24.27
2023-05-22T16:56:42.678Z,21.92
2023-05-22T16:59:10.093Z,22.20
2023-05-22T17:01:37.714Z,18.70
2023-05-22T17:04:05.106Z,51.72
2023-05-22T17:06:32.639Z,20.63
2023-05-22T17:09:00.164Z,23.17
2023-05-22T17:11:27.721Z,22.05
2023-05-22T17:13:55.137Z,22.92
2023-05-22T17:16:22.761Z,22.02
2023-05-22T17:18:51.015Z,18.75
2023-05-22T17:21:20.724Z,22.52
2023-05-22T17:23:48.465Z,20.52
2023-05-22T17:26:15.878Z,30.95
2023-05-22T17:28:43.482Z,17.33
2023-05-22T17:31:11.003Z,23.98
2023-05-22T17:33:38.509Z,17.52
2023-05-22T17:36:06.231Z,27.15
2023-05-22T17:38:33.716Z,21.42
2023-05-22T17:41:01.231Z,16.52
2023-05-22T17:43:29.423Z,23.08
2023-05-22T17:45:57.017Z,22.05
2023-05-22T17:48:27.442Z,18.27
2023-05-22T17:50:55.471Z,21.77
2023-05-22T17:53:23.053Z,24.70
2023-05-22T17:55:52.713Z,17.02
2023-05-22T17:58:21.118Z,15.05
2023-05-22T18:03:21.391Z,24.40
2023-05-22T18:05:50.293Z,21.05
2023-05-22T18:08:19.279Z,19.45
2023-05-22T18:10:46.785Z,17.15
2023-05-22T18:13:14.553Z,21.17
2023-05-22T18:15:42.314Z,20.27
2023-05-22T18:18:12.737Z,14.50
2023-05-22T18:20:40.714Z,9.55
2023-05-22T18:23:10.588Z,19.27
2023-05-22T18:25:38.106Z,22.60
2023-05-22T18:28:05.897Z,19.23
2023-05-22T18:30:33.336Z,16.30
2023-05-22T18:33:01.013Z,18.88
2023-05-22T18:35:28.525Z,18.63
2023-05-22T18:37:57.238Z,16.88
2023-05-22T18:40:24.938Z,12.52
2023-05-22T18:42:54.622Z,19.83
2023-05-22T18:45:22.201Z,22.00
2023-05-22T18:47:49.843Z,15.63
2023-05-22T18:50:17.442Z,14.07
2023-05-22T18:52:44.916Z,19.70
2023-05-22T18:55:12.545Z,12.65
2023-05-22T18:57:41.001Z,16.02
2023-05-22T19:00:10.419Z,16.42
2023-05-22T19:02:38.007Z,17.73
2023-05-22T19:05:06.227Z,15.32
2023-05-22T19:07:33.766Z,14.02
2023-05-22T19:10:01.480Z,22.83
2023-05-22T19:12:32.762Z,23.95
2023-05-22T19:15:01.052Z,14.55
2023-05-22T19:17:29.877Z,10.05
2023-05-22T19:19:57.457Z,16.92
2023-05-22T19:22:24.926Z,26.98
2023-05-22T19:24:52.412Z,19.80
2023-05-22T19:27:19.861Z,18.10
2023-05-22T19:29:47.297Z,14.82
2023-05-22T19:32:14.785Z,15.43
2023-05-22T19:34:42.361Z,14.35
2023-05-22T19:37:10.085Z,14.55
2023-05-22T19:39:38.866Z,22.60
2023-05-22T19:42:08.443Z,17.90
2023-05-22T19:44:36.198Z,18.55
2023-05-22T19:47:03.656Z,28.55
2023-05-22T19:49:31.909Z,21.25
2023-05-22T19:51:59.705Z,14.20
2023-05-22T19:54:27.108Z,13.57
2023-05-22T19:56:54.583Z,13.10
2023-05-22T19:59:22.002Z,13.90
2023-05-22T20:01:51.343Z,8.43
2023-05-22T20:04:21.635Z,22.33
2023-05-22T20:09:16.606Z,20.85
2023-05-22T20:11:44.057Z,14.57
2023-05-22T20:14:13.564Z,18.75
2023-05-22T20:16:41.344Z,12.05
2023-05-22T20:19:09.358Z,17.33
2023-05-22T20:21:37.052Z,18.48
2023-05-22T20:24:12.181Z,15.68
2023-05-22T20:26:39.627Z,19.00
2023-05-22T20:29:07.109Z,14.13
2023-05-22T20:31:34.919Z,28.65
2023-05-22T20:34:02.527Z,17.45
2023-05-22T20:36:30.355Z,16.25
2023-05-22T20:38:58.668Z,12.02
2023-05-22T20:41:26.425Z,17.20
2023-05-22T20:43:58.683Z,20.45
2023-05-22T20:46:27.078Z,16.80
2023-05-22T20:48:55.008Z,16.70
2023-05-22T20:51:23.002Z,11.90
2023-05-22T20:56:19.176Z,8.38
2023-05-22T20:58:46.714Z,15.32
2023-05-22T21:01:14.286Z,19.05
2023-05-22T21:03:41.819Z,10.90
2023-05-22T21:06:09.615Z,12.80
2023-05-22T21:08:37.141Z,12.27
2023-05-22T21:11:06.920Z,9.43
2023-05-22T21:13:34.364Z,10.43
2023-05-22T21:16:01.820Z,12.90
2023-05-22T21:18:29.276Z,11.55
2023-05-22T21:20:56.735Z,15.98
2023-05-22T21:23:24.709Z,10.32
2023-05-22T21:25:52.428Z,13.85
2023-05-22T21:28:19.922Z,8.65
2023-05-22T21:30:47.497Z,18.95
2023-05-22T21:33:15.073Z,12.82
2023-05-22T21:35:42.593Z,15.55
2023-05-22T21:38:10.104Z,11.05
2023-05-22T21:40:39.320Z,19.50
2023-05-22T21:43:06.915Z,10.77
2023-05-22T21:45:34.371Z,23.85
2023-05-22T21:48:01.965Z,15.50
2023-05-22T21:50:30.004Z,11.82
2023-05-22T21:52:58.999Z,20.95
2023-05-22T21:55:26.427Z,11.90
2023-05-22T21:57:53.870Z,10.75
2023-05-22T22:00:21.407Z,9.45
2023-05-22T22:02:49.185Z,9.00
2023-05-22T22:05:18.730Z,11.98
2023-05-22T22:07:46.788Z,14.40
2023-05-22T22:10:14.351Z,12.23
2023-05-22T22:12:41.838Z,15.75
2023-05-22T22:15:10.031Z,13.73
2023-05-22T22:20:06.041Z,10.40
2023-05-22T22:22:33.549Z,9.10
2023-05-22T22:25:01.146Z,13.85
2023-05-22T22:27:33.106Z,9.23
2023-05-22T22:30:00.565Z,7.85
2023-05-22T22:32:28.102Z,18.30
2023-05-22T22:34:55.554Z,12.48
2023-05-22T22:37:23.142Z,11.77
2023-05-22T22:39:50.729Z,10.50
2023-05-22T22:42:20.604Z,8.77
2023-05-22T22:44:48.002Z,11.88
2023-05-22T22:47:15.424Z,13.65
2023-05-22T22:49:42.866Z,17.02
2023-05-22T22:52:10.578Z,12.57
2023-05-22T22:54:38.835Z,15.02
2023-05-22T22:57:06.810Z,8.43
2023-05-22T22:59:35.598Z,9.65
2023-05-22T23:02:03.002Z,15.50
2023-05-22T23:04:31.472Z,14.05
2023-05-22T23:06:59.000Z,10.13
2023-05-22T23:09:26.405Z,11.93
2023-05-22T23:11:53.909Z,14.43
2023-05-22T23:14:21.415Z,12.60
2023-05-22T23:16:48.991Z,12.88
2023-05-22T23:19:16.455Z,14.55
2023-05-22T23:21:44.841Z,14.50
2023-05-22T23:24:12.272Z,11.10
2023-05-22T23:26:39.989Z,14.15
2023-05-22T23:29:08.366Z,10.93
2023-05-22T23:31:36.638Z,12.48
2023-05-22T23:34:04.328Z,10.68
2023-05-22T23:36:32.713Z,6.88
2023-05-22T23:39:00.352Z,9.90
2023-05-22T23:41:27.791Z,10.77
2023-05-22T23:43:55.245Z,8.83
2023-05-22T23:46:24.435Z,11.50
2023-05-22T23:48:52.288Z,11.10
2023-05-22T23:51:19.987Z,9.88
2023-05-22T23:53:47.580Z,13.35
2023-05-22T23:56:15.077Z,16.17
2023-05-22T23:58:42.761Z,14.18
